DRBK1: Arkansas River, Derby, KS

Data processed at Thu Jan 04 2018 23:04


All information presented herein is the property of the government of the United States of America and may be revised or deleted at any time without prior notice.
Dissemination of this information without the expressed written consent of the Public Affairs Office, Tulsa District U.S. Army Corps of Engineers is strictly prohibited.
These data are gathered electronically and, as presented, have not undergone any form of quality control. These data are not guaranteed to be valid or correct.
Go to home page.
Go to station list.

Upstream stations:

Downstream station:
Previous Day
Next Day
Current Day
    
SHEF ID:       DRBK1     ARKANSAS R AT DERBY, KS
STATION TYPE:  

               PRECIP     STAGE  RIV-FLOW  BAT-LOAD
                   in        ft       cfs      volt
              Ccp-Rev   Ccp-Rev   Ccp-Rev   Ccp-Rev
(US/Central)
01/02 00:00      ----      1.40       256     12.33
01/02 01:00      ----      1.38       247     12.25
01/02 02:00      ----      1.38       247     12.25
01/02 03:00      ----      1.37       243     12.25
01/02 04:00      ----      1.35       235     12.17
01/02 05:00      ----      1.32       222     12.17
01/02 06:00      ----      1.31       218     12.17
01/02 07:00      ----      1.29       210     12.17
01/02 08:00      ----      1.26       198     12.09
01/02 09:00      ----      1.24       190     12.09
01/02 10:00      ----      1.24       190     12.17
01/02 11:00      ----      1.25       194     12.25
01/02 12:00      ----      1.25       194     13.21
01/02 13:00      ----      1.26       198     12.57
01/02 14:00      ----      1.31       218     13.29
01/02 15:00      ----      1.38       247     13.29
01/02 16:00      ----      1.47       288     13.13
01/02 17:00      ----      1.55       326     12.73
01/02 18:00      ----      1.59       346     12.57
01/02 19:00      ----      1.57       336     12.49
01/02 20:00      ----      1.55       326     12.49
01/02 21:00      ----      1.52       312     12.41
01/02 22:00      ----      1.47       288     12.41
01/02 23:00      ----      1.44       274     12.33